Terminal Aerodrome Forecast
Issued by NWS Atlanta, GA

Home | Current Version | Previous Version | Text Only | Print | Product List | Glossary On
Versions: 1 2 3 4 5 6 7 8 9 10 11 12
000
FTUS42 KFFC 242320
TAFCSG
TAF
KCSG 242320Z 2500/2524 10007KT P6SM VCSH SCT060 BKN110
     FM250100 10004KT P6SM FEW060 FEW150
     FM251500 13005KT P6SM SCT040
     FM251700 09006KT P6SM SCT050=

USA.gov is the U.S. government's official web portal to all federal, state and local government web resources and services.